createdAt,value
2022-12-25T00:01:39.068Z,101331.66
2022-12-25T00:04:05.663Z,101331.66
2022-12-25T00:06:32.138Z,101334.50
2022-12-25T00:08:58.668Z,101338.03
2022-12-25T00:11:25.032Z,101330.63
2022-12-25T00:13:51.469Z,101331.31
2022-12-25T00:16:24.199Z,101324.94
2022-12-25T00:18:53.997Z,101326.28
2022-12-25T00:21:21.891Z,101320.25
2022-12-25T00:23:53.114Z,101318.56
2022-12-25T00:26:19.593Z,101324.09
2022-12-25T00:28:46.313Z,101326.78
2022-12-25T00:31:15.728Z,101331.97
2022-12-25T00:33:44.145Z,101331.66
2022-12-25T00:36:12.127Z,101326.13
2022-12-25T00:38:40.235Z,101333.81
2022-12-25T00:41:18.328Z,101336.34
2022-12-25T00:43:44.836Z,101331.13
2022-12-25T00:46:13.102Z,101334.66
2022-12-25T00:48:40.053Z,101330.16
2022-12-25T00:51:10.420Z,101324.78
2022-12-25T00:53:36.898Z,101328.28
2022-12-25T00:56:05.972Z,101340.69
2022-12-25T00:58:34.261Z,101338.00
2022-12-25T01:01:01.247Z,101340.38
2022-12-25T01:03:28.195Z,101343.19
2022-12-25T01:05:57.438Z,101347.41
2022-12-25T01:08:24.915Z,101347.22
2022-12-25T01:10:58.776Z,101349.06
2022-12-25T01:13:25.711Z,101352.78
2022-12-25T01:15:52.669Z,101351.75
2022-12-25T01:18:19.932Z,101334.81
2022-12-25T01:20:46.939Z,101340.88
2022-12-25T01:23:13.530Z,101356.97
2022-12-25T01:25:40.025Z,101348.22
2022-12-25T01:28:07.366Z,101344.22
2022-12-25T01:30:33.903Z,101337.84
2022-12-25T01:33:00.362Z,101343.88
2022-12-25T01:35:26.762Z,101336.84
2022-12-25T01:37:53.728Z,101333.47
2022-12-25T01:40:20.214Z,101339.69
2022-12-25T01:42:46.643Z,101341.34
2022-12-25T01:45:54.893Z,101332.47
2022-12-25T01:48:34.086Z,101341.72
2022-12-25T01:51:20.301Z,101330.78
2022-12-25T01:53:46.740Z,101338.66
2022-12-25T01:56:13.185Z,101343.38
2022-12-25T01:58:39.662Z,101346.91
2022-12-25T02:01:06.199Z,101346.25
2022-12-25T02:03:32.783Z,101344.41
2022-12-25T02:06:01.148Z,101349.59
2022-12-25T02:08:27.873Z,101348.56
2022-12-25T02:10:54.301Z,101342.22
2022-12-25T02:13:21.004Z,101336.16
2022-12-25T02:16:13.295Z,101342.03
2022-12-25T02:18:46.441Z,101338.34
2022-12-25T02:21:35.545Z,101341.22
2022-12-25T02:24:30.771Z,101340.19
2022-12-25T02:27:36.698Z,101343.56
2022-12-25T02:30:07.036Z,101352.59
2022-12-25T02:33:18.309Z,101341.22
2022-12-25T02:35:52.268Z,101336.19
2022-12-25T02:38:31.361Z,101333.81
2022-12-25T02:41:04.723Z,101333.00
2022-12-25T02:43:55.002Z,101326.78
2022-12-25T02:46:42.352Z,101319.75
2022-12-25T02:49:34.191Z,101319.06
2022-12-25T02:52:30.067Z,101311.38
2022-12-25T02:55:21.539Z,101311.19
2022-12-25T02:58:21.471Z,101296.75
2022-12-25T03:01:11.508Z,101292.22
2022-12-25T03:03:59.831Z,101275.28
2022-12-25T03:06:43.714Z,101272.63
2022-12-25T03:09:42.890Z,101284.38
2022-12-25T03:12:42.968Z,101283.03
2022-12-25T03:15:30.609Z,101274.47
2022-12-25T03:18:00.307Z,101276.81
2022-12-25T03:20:45.411Z,101274.13
2022-12-25T03:23:33.766Z,101272.94
2022-12-25T03:26:18.977Z,101278.47
2022-12-25T03:28:45.409Z,101285.38
2022-12-25T03:31:18.641Z,101282.50
2022-12-25T03:34:30.206Z,101295.59
2022-12-25T03:37:44.801Z,101289.19
2022-12-25T03:40:55.956Z,101299.09
2022-12-25T03:44:04.776Z,101286.34
2022-12-25T03:46:53.754Z,101288.03
2022-12-25T03:49:43.579Z,101283.00
2022-12-25T03:52:32.832Z,101282.16
2022-12-25T03:55:22.103Z,101279.47
2022-12-25T03:58:07.521Z,101273.78
2022-12-25T04:00:52.347Z,101274.75
2022-12-25T04:03:37.606Z,101260.34
2022-12-25T04:06:22.610Z,101267.53
2022-12-25T04:09:07.358Z,101273.59
2022-12-25T04:11:56.032Z,101258.50
2022-12-25T04:14:45.523Z,101265.72
2022-12-25T04:17:30.283Z,101261.00
2022-12-25T04:20:15.141Z,101265.72
2022-12-25T04:22:59.908Z,101261.34
2022-12-25T04:25:44.825Z,101266.72
2022-12-25T04:28:29.682Z,101266.41
2022-12-25T04:31:19.331Z,101268.06
2022-12-25T04:34:04.803Z,101274.94
2022-12-25T04:36:31.248Z,101264.03
2022-12-25T04:38:57.683Z,101267.38
2022-12-25T04:41:24.114Z,101258.00
2022-12-25T04:43:50.496Z,101265.88
2022-12-25T04:46:16.950Z,101260.34
2022-12-25T04:48:43.533Z,101257.31
2022-12-25T04:51:15.162Z,101250.59
2022-12-25T04:53:42.149Z,101263.16
2022-12-25T04:56:08.617Z,101252.28
2022-12-25T04:58:35.062Z,101262.66
2022-12-25T05:01:02.699Z,101260.97
2022-12-25T05:03:29.705Z,101266.00
2022-12-25T05:05:56.342Z,101258.59
2022-12-25T05:08:23.180Z,101263.00
2022-12-25T05:10:50.043Z,101260.31
2022-12-25T05:13:16.648Z,101253.25
2022-12-25T05:15:43.815Z,101254.06
2022-12-25T05:18:10.258Z,101263.81
2022-12-25T05:20:40.210Z,101250.88
2022-12-25T05:23:09.004Z,101258.09
2022-12-25T05:25:39.693Z,101257.63
2022-12-25T05:28:06.541Z,101244.19
2022-12-25T05:30:34.178Z,101251.22
2022-12-25T05:33:00.986Z,101239.16
2022-12-25T05:35:27.419Z,101235.47
2022-12-25T05:37:53.816Z,101234.28
2022-12-25T05:40:20.255Z,101236.78
2022-12-25T05:42:46.761Z,101237.97
2022-12-25T05:45:13.130Z,101232.97
2022-12-25T05:47:39.630Z,101234.81
2022-12-25T05:50:06.642Z,101241.53
2022-12-25T05:52:34.427Z,101224.41
2022-12-25T05:55:01.209Z,101230.63
2022-12-25T05:57:31.709Z,101231.63
2022-12-25T05:59:58.082Z,101233.16
2022-12-25T06:02:25.564Z,101229.28
2022-12-25T06:04:52.208Z,101212.34
2022-12-25T06:07:18.648Z,101222.06
2022-12-25T06:09:45.144Z,101216.53
2022-12-25T06:12:11.771Z,101207.31
2022-12-25T06:14:38.377Z,101204.63
2022-12-25T06:17:04.931Z,101209.81
2022-12-25T06:19:31.462Z,101189.06
2022-12-25T06:21:57.941Z,101186.69
2022-12-25T06:24:24.628Z,101205.13
2022-12-25T06:26:51.408Z,101192.53
2022-12-25T06:29:17.809Z,101202.25
2022-12-25T06:31:44.359Z,101190.69
2022-12-25T06:34:10.845Z,101189.50
2022-12-25T06:36:38.003Z,101177.13
2022-12-25T06:39:04.536Z,101187.00
2022-12-25T06:41:30.946Z,101194.22
2022-12-25T06:43:59.269Z,101187.16
2022-12-25T06:46:27.999Z,101186.34
2022-12-25T06:48:54.668Z,101179.66
2022-12-25T06:51:26.555Z,101181.16
2022-12-25T06:53:54.492Z,101179.13
2022-12-25T06:56:24.159Z,101174.44
2022-12-25T06:58:53.943Z,101183.97
2022-12-25T07:01:24.266Z,101185.63
2022-12-25T07:03:56.110Z,101197.03
2022-12-25T07:06:22.754Z,101191.50
2022-12-25T07:08:49.235Z,101181.75
2022-12-25T07:11:15.890Z,101184.44
2022-12-25T07:13:42.376Z,101181.75
2022-12-25T07:16:11.581Z,101184.31
2022-12-25T07:18:38.223Z,101184.78
2022-12-25T07:21:16.010Z,101186.50
2022-12-25T07:23:46.107Z,101192.50
2022-12-25T07:26:13.936Z,101187.47
2022-12-25T07:28:40.979Z,101191.66
2022-12-25T07:31:11.638Z,101188.81
2022-12-25T07:33:38.319Z,101186.78
2022-12-25T07:36:05.571Z,101180.22
2022-12-25T07:38:32.240Z,101185.78
2022-12-25T07:40:58.824Z,101185.97
2022-12-25T07:43:25.366Z,101196.31
2022-12-25T07:45:56.792Z,101214.63
2022-12-25T07:48:23.280Z,101213.75
2022-12-25T07:50:56.134Z,101202.03
2022-12-25T07:53:22.523Z,101203.88
2022-12-25T07:55:48.967Z,101203.03
2022-12-25T07:58:19.944Z,101196.81
2022-12-25T08:00:49.802Z,101191.44
2022-12-25T08:03:16.869Z,101182.75
2022-12-25T08:05:43.385Z,101195.97
2022-12-25T08:08:09.791Z,101193.31
2022-12-25T08:10:37.150Z,101180.72
2022-12-25T08:13:06.490Z,101203.69
2022-12-25T08:15:35.460Z,101209.56
2022-12-25T08:18:01.830Z,101208.19
2022-12-25T08:20:28.186Z,101228.84
2022-12-25T08:22:54.544Z,101228.66
2022-12-25T08:25:20.962Z,101230.50
2022-12-25T08:27:47.340Z,101218.09
2022-12-25T08:30:13.891Z,101220.13
2022-12-25T08:32:40.367Z,101222.66
2022-12-25T08:35:07.355Z,101211.91
2022-12-25T08:37:33.744Z,101220.13
2022-12-25T08:40:00.253Z,101212.88
2022-12-25T08:42:26.659Z,101201.31
2022-12-25T08:44:53.181Z,101214.94
2022-12-25T08:47:19.633Z,101211.41
2022-12-25T08:49:46.085Z,101205.22
2022-12-25T08:52:12.649Z,101213.25
2022-12-25T08:54:39.080Z,101210.22
2022-12-25T08:57:05.582Z,101209.03
2022-12-25T08:59:32.023Z,101216.59
2022-12-25T09:01:58.591Z,101213.56
2022-12-25T09:04:25.145Z,101209.88
2022-12-25T09:06:51.625Z,101203.47
2022-12-25T09:09:17.992Z,101207.00
2022-12-25T09:11:44.571Z,101210.16
2022-12-25T09:14:13.510Z,101219.91
2022-12-25T09:16:39.991Z,101230.47
2022-12-25T09:19:06.378Z,101228.28
2022-12-25T09:21:32.854Z,101227.44
2022-12-25T09:23:59.207Z,101236.16
2022-12-25T09:26:27.168Z,101233.66
2022-12-25T09:28:53.559Z,101221.06
2022-12-25T09:31:21.615Z,101221.88
2022-12-25T09:33:48.931Z,101231.59
2022-12-25T09:36:15.441Z,101228.91
2022-12-25T09:38:41.917Z,101236.63
2022-12-25T09:41:17.245Z,101228.22
2022-12-25T09:43:50.401Z,101217.50
2022-12-25T09:46:21.738Z,101218.19
2022-12-25T09:49:02.858Z,101215.69
2022-12-25T09:51:33.053Z,101215.16
2022-12-25T09:54:11.643Z,101208.94
2022-12-25T09:56:38.356Z,101219.50
2022-12-25T09:59:18.839Z,101220.13
2022-12-25T10:02:00.938Z,101215.78
2022-12-25T10:05:11.938Z,101215.41
2022-12-25T10:08:21.439Z,101211.72
2022-12-25T10:10:51.911Z,101219.09
2022-12-25T10:13:50.360Z,101212.91
2022-12-25T10:16:46.445Z,101205.88
2022-12-25T10:19:38.618Z,101205.38
2022-12-25T10:22:14.321Z,101200.34
2022-12-25T10:24:47.769Z,101205.38
2022-12-25T10:27:28.699Z,101200.00
2022-12-25T10:29:55.204Z,101201.66
2022-12-25T10:32:22.022Z,101189.25
2022-12-25T10:34:49.661Z,101171.47
2022-12-25T10:37:16.948Z,101168.94
2022-12-25T10:39:46.879Z,101165.91
2022-12-25T10:42:29.068Z,101157.84
2022-12-25T10:45:01.102Z,101157.66
2022-12-25T10:47:41.989Z,101152.13
2022-12-25T10:50:13.057Z,101138.84
2022-12-25T10:52:54.978Z,101138.03
2022-12-25T10:55:28.165Z,101126.28
2022-12-25T10:57:55.496Z,101141.19
2022-12-25T11:00:27.473Z,101138.34
2022-12-25T11:02:54.708Z,101136.50
2022-12-25T11:05:26.503Z,101135.66
2022-12-25T11:07:56.086Z,101133.59
2022-12-25T11:10:25.650Z,101117.31
2022-12-25T11:12:53.321Z,101115.28
2022-12-25T11:15:39.526Z,101111.22
2022-12-25T11:18:22.219Z,101105.50
2022-12-25T11:20:50.644Z,101116.88
2022-12-25T11:23:20.210Z,101114.19
2022-12-25T11:25:56.254Z,101101.22
2022-12-25T11:28:24.093Z,101093.34
2022-12-25T11:30:55.205Z,101083.44
2022-12-25T11:33:27.709Z,101064.44
2022-12-25T11:35:57.981Z,101047.94
2022-12-25T11:38:24.742Z,101043.22
2022-12-25T11:40:54.687Z,101052.97
2022-12-25T11:43:27.747Z,101052.59
2022-12-25T11:46:01.245Z,101048.91
2022-12-25T11:48:41.147Z,101052.59
2022-12-25T11:51:09.846Z,101055.28
2022-12-25T11:53:51.789Z,101042.84
2022-12-25T11:56:23.070Z,101049.25
2022-12-25T11:58:56.927Z,101045.91
2022-12-25T12:01:37.306Z,101048.59
2022-12-25T12:04:27.461Z,101051.81
2022-12-25T12:07:27.659Z,101042.94
2022-12-25T12:10:15.189Z,101041.91
2022-12-25T12:13:05.909Z,101039.06
2022-12-25T12:15:43.428Z,101026.44
2022-12-25T12:18:21.868Z,101009.28
2022-12-25T12:21:05.529Z,101004.69
2022-12-25T12:23:36.857Z,101005.31
2022-12-25T12:26:04.573Z,101015.03
2022-12-25T12:28:45.140Z,101007.63
2022-12-25T12:31:12.160Z,101008.91
2022-12-25T12:33:44.038Z,101015.59
2022-12-25T12:36:14.942Z,101016.63
2022-12-25T12:38:43.574Z,101010.03
2022-12-25T12:41:13.850Z,101015.69
2022-12-25T12:44:03.169Z,101013.22
2022-12-25T12:46:33.882Z,101009.38
2022-12-25T12:49:32.699Z,101003.38
2022-12-25T12:52:19.108Z,101005.22
2022-12-25T12:55:08.297Z,101003.53
2022-12-25T12:57:39.595Z,100994.47
2022-12-25T13:00:10.435Z,100993.84
2022-12-25T13:02:43.460Z,100987.06
2022-12-25T13:05:41.971Z,100982.69
2022-12-25T13:08:29.504Z,100974.19
2022-12-25T13:11:05.233Z,100963.44
2022-12-25T13:13:39.868Z,100954.91
2022-12-25T13:16:13.352Z,100942.88
2022-12-25T13:18:40.121Z,100937.28
2022-12-25T13:21:07.323Z,100926.53
2022-12-25T13:23:36.814Z,100932.13
2022-12-25T13:26:16.826Z,100940.72
2022-12-25T13:28:46.219Z,100925.59
2022-12-25T13:31:12.823Z,100928.69
2022-12-25T13:33:58.175Z,100932.84
2022-12-25T13:36:26.822Z,100934.69
2022-12-25T13:38:56.540Z,100944.25
2022-12-25T13:41:45.316Z,100945.25
2022-12-25T13:44:24.727Z,100952.31
2022-12-25T13:46:51.570Z,100954.81
2022-12-25T13:49:21.458Z,100958.69
2022-12-25T13:51:48.510Z,100956.84
2022-12-25T13:54:17.188Z,100956.84
2022-12-25T13:56:48.300Z,100945.09
2022-12-25T13:59:21.414Z,100941.56
2022-12-25T14:01:49.483Z,100939.88
2022-12-25T14:04:22.233Z,100940.91
2022-12-25T14:06:49.525Z,100938.22
2022-12-25T14:09:16.848Z,100945.25
2022-12-25T14:11:48.632Z,100946.94
2022-12-25T14:14:23.944Z,100947.56
2022-12-25T14:16:54.612Z,100944.88
2022-12-25T14:19:27.286Z,100947.56
2022-12-25T14:22:10.711Z,100949.22
2022-12-25T14:24:39.447Z,100947.41
2022-12-25T14:27:16.285Z,100944.06
2022-12-25T14:29:45.461Z,100941.56
2022-12-25T14:32:18.061Z,100945.16
2022-12-25T14:34:47.433Z,100947.13
2022-12-25T14:37:21.735Z,100944.63
2022-12-25T14:40:00.143Z,100936.94
2022-12-25T14:42:31.834Z,100932.19
2022-12-25T14:45:03.380Z,100916.06
2022-12-25T14:47:31.959Z,100923.13
2022-12-25T14:49:58.618Z,100912.19
2022-12-25T14:52:42.000Z,100918.59
2022-12-25T14:55:20.141Z,100914.88
2022-12-25T14:57:58.642Z,100933.47
2022-12-25T15:00:38.135Z,100929.34
2022-12-25T15:03:08.053Z,100932.66
2022-12-25T15:05:37.632Z,100939.69
2022-12-25T15:08:04.010Z,100940.56
2022-12-25T15:13:20.671Z,100933.31
2022-12-25T15:16:15.799Z,100934.88
2022-12-25T15:18:44.981Z,100931.72
2022-12-25T15:21:24.775Z,100928.41
2022-12-25T15:23:53.305Z,100933.94
2022-12-25T15:26:19.826Z,100937.66
2022-12-25T15:28:46.179Z,100933.94
2022-12-25T15:31:27.854Z,100936.63
2022-12-25T15:33:56.349Z,100939.31
2022-12-25T15:36:24.446Z,100928.56
2022-12-25T15:38:51.567Z,100916.53
2022-12-25T15:41:40.805Z,100926.44
2022-12-25T15:44:07.404Z,100918.19
2022-12-25T15:46:34.420Z,100918.84
2022-12-25T15:49:01.094Z,100925.88
2022-12-25T15:51:27.845Z,100927.53
2022-12-25T15:53:54.256Z,100923.84
2022-12-25T15:56:22.017Z,100925.53
2022-12-25T15:58:48.512Z,100931.09
2022-12-25T16:01:16.272Z,100930.22
2022-12-25T16:03:44.183Z,100915.97
2022-12-25T16:06:16.338Z,100913.09
2022-12-25T16:08:43.490Z,100913.28
2022-12-25T16:11:10.263Z,100908.94
2022-12-25T16:13:37.080Z,100914.97
2022-12-25T16:16:04.957Z,100908.72
2022-12-25T16:18:31.498Z,100902.72
2022-12-25T16:20:59.423Z,100901.22
2022-12-25T16:23:25.968Z,100893.16
2022-12-25T16:25:52.437Z,100890.69
2022-12-25T16:28:18.861Z,100900.41
2022-12-25T16:30:45.427Z,100900.59
2022-12-25T16:33:12.124Z,100902.47
2022-12-25T16:35:38.749Z,100901.63
2022-12-25T16:38:05.338Z,100889.38
2022-12-25T16:40:32.058Z,100885.88
2022-12-25T16:42:58.579Z,100890.56
2022-12-25T16:45:25.071Z,100884.94
2022-12-25T16:47:51.528Z,100879.56
2022-12-25T16:50:17.957Z,100880.97
2022-12-25T16:52:44.329Z,100889.84
2022-12-25T16:55:10.874Z,100881.63
2022-12-25T16:57:37.382Z,100879.56
2022-12-25T17:00:04.386Z,100875.22
2022-12-25T17:02:31.053Z,100878.72
2022-12-25T17:04:57.587Z,100880.75
2022-12-25T17:07:23.983Z,100887.00
2022-12-25T17:09:50.418Z,100886.78
2022-12-25T17:12:17.359Z,100887.63
2022-12-25T17:14:43.844Z,100893.00
2022-12-25T17:17:10.240Z,100893.81
2022-12-25T17:19:36.828Z,100898.56
2022-12-25T17:22:03.361Z,100894.19
2022-12-25T17:24:29.942Z,100877.06
2022-12-25T17:26:56.492Z,100884.09
2022-12-25T17:29:23.189Z,100880.38
2022-12-25T17:31:50.161Z,100873.72
2022-12-25T17:34:16.875Z,100876.78
2022-12-25T17:36:43.329Z,100870.78
2022-12-25T17:39:10.830Z,100869.09
2022-12-25T17:41:37.321Z,100872.44
2022-12-25T17:44:03.843Z,100877.63
2022-12-25T17:46:31.160Z,100879.47
2022-12-25T17:48:59.319Z,100881.97
2022-12-25T17:51:27.409Z,100883.63
2022-12-25T17:53:56.902Z,100889.00
2022-12-25T17:56:24.753Z,100888.81
2022-12-25T17:58:53.712Z,100881.78
2022-12-25T18:01:21.270Z,100877.44
2022-12-25T18:03:48.133Z,100870.22
2022-12-25T18:06:17.758Z,100875.59
2022-12-25T18:08:45.663Z,100879.09
2022-12-25T18:11:15.245Z,100877.06
2022-12-25T18:13:44.966Z,100870.00
2022-12-25T18:16:13.130Z,100861.94
2022-12-25T18:18:40.419Z,100863.81
2022-12-25T18:21:07.785Z,100860.13
2022-12-25T18:23:35.443Z,100867.97
2022-12-25T18:26:03.547Z,100857.22
2022-12-25T18:28:30.190Z,100848.50
2022-12-25T18:30:56.651Z,100848.50
2022-12-25T18:33:23.201Z,100849.19
2022-12-25T18:35:50.662Z,100866.78
2022-12-25T18:38:17.134Z,100881.88
2022-12-25T18:40:46.572Z,100887.06
2022-12-25T18:43:13.809Z,100899.47
2022-12-25T18:45:41.184Z,100896.78
2022-12-25T18:48:10.487Z,100900.50
2022-12-25T18:50:39.273Z,100900.88
2022-12-25T18:53:06.714Z,100894.50
2022-12-25T18:55:33.178Z,100888.44
2022-12-25T18:57:59.624Z,100892.16
2022-12-25T19:00:26.050Z,100894.03
2022-12-25T19:02:57.202Z,100888.00
2022-12-25T19:05:23.811Z,100878.94
2022-12-25T19:07:50.280Z,100877.06
2022-12-25T19:10:16.785Z,100869.00
2022-12-25T19:12:43.244Z,100870.00
2022-12-25T19:15:10.484Z,100870.88
2022-12-25T19:17:36.961Z,100877.91
2022-12-25T19:20:05.945Z,100875.38
2022-12-25T19:22:32.384Z,100870.41
2022-12-25T19:24:59.172Z,100871.59
2022-12-25T19:27:25.651Z,100868.28
2022-12-25T19:29:52.078Z,100865.75
2022-12-25T19:32:18.511Z,100864.94
2022-12-25T19:34:44.919Z,100873.81
2022-12-25T19:37:11.476Z,100866.41
2022-12-25T19:39:37.984Z,100866.41
2022-12-25T19:42:04.436Z,100877.16
2022-12-25T19:44:30.833Z,100894.94
2022-12-25T19:46:57.266Z,100892.47
2022-12-25T19:49:25.480Z,100899.28
2022-12-25T19:51:51.946Z,100894.13
2022-12-25T19:54:20.429Z,100895.97
2022-12-25T19:56:48.519Z,100900.13
2022-12-25T19:59:15.709Z,100901.97
2022-12-25T20:01:42.670Z,100903.84
2022-12-25T20:04:10.347Z,100901.34
2022-12-25T20:06:42.390Z,100897.84
2022-12-25T20:09:12.119Z,100903.00
2022-12-25T20:11:39.597Z,100898.47
2022-12-25T20:14:07.802Z,100908.03
2022-12-25T20:16:38.162Z,100900.78
2022-12-25T20:19:04.696Z,100885.50
2022-12-25T20:21:31.281Z,100883.63
2022-12-25T20:23:57.789Z,100896.25
2022-12-25T20:26:29.677Z,100886.31
2022-12-25T20:28:57.175Z,100888.19
2022-12-25T20:31:27.184Z,100896.25
2022-12-25T20:33:55.197Z,100896.25
2022-12-25T20:36:21.766Z,100889.00
2022-12-25T20:38:48.867Z,100879.94
2022-12-25T20:41:27.206Z,100878.06
2022-12-25T20:43:54.753Z,100878.94
2022-12-25T20:46:22.393Z,100887.16
2022-12-25T20:48:48.989Z,100897.75
2022-12-25T20:51:18.708Z,100890.88
2022-12-25T20:53:46.220Z,100894.38
2022-12-25T20:56:14.709Z,100891.50
2022-12-25T20:58:42.860Z,100890.69
2022-12-25T21:01:13.122Z,100892.16
2022-12-25T21:03:40.509Z,100894.03
2022-12-25T21:06:07.956Z,100899.41
2022-12-25T21:08:35.385Z,100900.22
2022-12-25T21:11:02.510Z,100896.06
2022-12-25T21:13:37.827Z,100899.56
2022-12-25T21:16:06.378Z,100909.31
2022-12-25T21:18:33.063Z,100908.50
2022-12-25T21:21:00.889Z,100903.94
2022-12-25T21:23:28.676Z,100906.44
2022-12-25T21:25:55.055Z,100914.31
2022-12-25T21:28:23.051Z,100911.44
2022-12-25T21:30:49.717Z,100909.78
2022-12-25T21:33:34.931Z,100911.25
2022-12-25T21:36:09.345Z,100916.63
2022-12-25T21:38:36.878Z,100917.28
2022-12-25T21:41:08.768Z,100918.28
2022-12-25T21:43:36.368Z,100922.66
2022-12-25T21:46:11.820Z,100920.81
2022-12-25T21:48:39.520Z,100924.53
2022-12-25T21:51:29.779Z,100924.69
2022-12-25T21:53:56.401Z,100920.53
2022-12-25T21:56:22.979Z,100932.47
2022-12-25T21:58:49.475Z,100935.16
2022-12-25T22:01:16.797Z,100935.78
2022-12-25T22:03:44.048Z,100935.63
2022-12-25T22:06:30.049Z,100930.41
2022-12-25T22:08:57.127Z,100927.75
2022-12-25T22:11:45.062Z,100919.88
2022-12-25T22:14:51.297Z,100923.38
2022-12-25T22:17:43.347Z,100914.31
2022-12-25T22:20:13.712Z,100920.69
2022-12-25T22:22:40.090Z,100915.31
2022-12-25T22:25:07.030Z,100918.69
2022-12-25T22:27:35.766Z,100926.91
2022-12-25T22:30:02.787Z,100922.34
2022-12-25T22:32:29.325Z,100923.22
2022-12-25T22:34:55.759Z,100915.59
2022-12-25T22:37:22.382Z,100915.59
2022-12-25T22:39:48.793Z,100904.84
2022-12-25T22:42:15.711Z,100904.41
2022-12-25T22:44:42.352Z,100902.34
2022-12-25T22:47:08.982Z,100888.28
2022-12-25T22:49:35.452Z,100897.81
2022-12-25T22:52:02.214Z,100898.00
2022-12-25T22:54:31.214Z,100900.88
2022-12-25T22:56:58.159Z,100894.03
2022-12-25T22:59:25.017Z,100896.88
2022-12-25T23:01:51.620Z,100891.69
2022-12-25T23:04:18.223Z,100896.72
2022-12-25T23:06:44.971Z,100901.88
2022-12-25T23:09:20.470Z,100902.91
2022-12-25T23:11:50.610Z,100905.13
2022-12-25T23:14:35.471Z,100894.75
2022-12-25T23:17:01.900Z,100885.03
2022-12-25T23:19:46.691Z,100891.44
2022-12-25T23:22:31.990Z,100885.22
2022-12-25T23:25:17.258Z,100882.72
2022-12-25T23:27:44.857Z,100875.47
2022-12-25T23:30:14.404Z,100881.72
2022-12-25T23:32:41.719Z,100887.09
2022-12-25T23:35:08.825Z,100879.84
2022-12-25T23:37:35.208Z,100895.31
2022-12-25T23:40:01.764Z,100902.34
2022-12-25T23:42:28.354Z,100894.28
2022-12-25T23:44:54.750Z,100903.38
2022-12-25T23:47:21.188Z,100910.81
2022-12-25T23:49:47.547Z,100908.00
2022-12-25T23:52:14.041Z,100909.88
2022-12-25T23:54:40.486Z,100914.88
2022-12-25T23:57:06.927Z,100902.91
2022-12-25T23:59:33.414Z,100915.97
